This is the latest recevied weather packets stored in our database for station/object EA4IAJ-12. If no packets are shown the sender has not sent any weather packets the latest 10 day(s).
| Time | Temp. | Humidity | Pressure | Rain* | Wind** | Luminosity | Snow |
|---|---|---|---|---|---|---|---|
| 1777268707 | 10.56° C | 67% | 983 hPa | - | - | - | - |
| 1777267806 | 10.56° C | 64% | 982.7 hPa | - | - | - | - |
| 1777266906 | 10.56° C | 62% | 982.5 hPa | - | - | - | - |
| 1777266005 | 10.56° C | 60% | 982.4 hPa | - | - | - | - |
| 1777265105 | 10.56° C | 59% | 982.3 hPa | - | - | - | - |
| 1777264204 | 10.56° C | 57% | 983 hPa | - | - | - | - |
| 1777263304 | 11.11° C | 56% | 984 hPa | - | - | - | - |
| 1777262403 | 11.67° C | 55% | 986 hPa | - | - | - | - |
| 1777261515 | 12.22° C | 55% | 987.5 hPa | - | - | - | - |
| 1777260614 | 12.22° C | 54% | 987.7 hPa | - | - | - | - |
| 1777259713 | 12.78° C | 54% | 990.1 hPa | - | - | - | - |
| 1777258813 | 13.33° C | 54% | 992.3 hPa | - | - | - | - |
| 1777257912 | 14.44° C | 54% | 995.6 hPa | - | - | - | - |
| 1777257012 | 16.11° C | 55% | 1000.6 hPa | - | - | - | - |
| 1777256111 | 15.56° C | 54% | 998.2 hPa | - | - | - | - |
| 1777255211 | 15° C | 52% | 996.2 hPa | - | - | - | - |
| 1777254310 | 14.44° C | 51% | 995.5 hPa | - | - | - | - |
| 1777253410 | 13.33° C | 50% | 991 hPa | - | - | - | - |
| 1777252509 | 12.78° C | 49% | 988.5 hPa | - | - | - | - |
| 1777251608 | 12.78° C | 48% | 988.2 hPa | - | - | - | - |
| 1777250708 | 13.33° C | 48% | 990 hPa | - | - | - | - |
| 1777249807 | 13.33° C | 47% | 990.5 hPa | - | - | - | - |
| 1777248907 | 13.89° C | 47% | 992 hPa | - | - | - | - |
| 1777248006 | 15° C | 47% | 995.8 hPa | - | - | - | - |
| 1777247106 | 15° C | 47% | 996.3 hPa | - | - | - | - |
* Rain since midnight (hover to see other rain measurements)
** Current wind speed in m/s (hover to see current wind gust speed)